createdAt,value
2019-05-06T00:02:14.191Z,7.33
2019-05-06T00:04:44.815Z,8.67
2019-05-06T00:07:14.102Z,5.70
2019-05-06T00:09:44.164Z,8.83
2019-05-06T00:12:14.547Z,9.13
2019-05-06T00:14:43.933Z,10.03
2019-05-06T00:17:14.569Z,10.00
2019-05-06T00:19:44.740Z,7.80
2019-05-06T00:22:14.712Z,10.87
2019-05-06T00:24:49.832Z,8.77
2019-05-06T00:27:24.754Z,9.63
2019-05-06T00:29:54.936Z,11.40
2019-05-06T00:32:25.042Z,7.73
2019-05-06T00:34:55.023Z,15.70
2019-05-06T00:37:24.236Z,8.23
2019-05-06T00:39:58.783Z,9.50
2019-05-06T00:42:36.001Z,8.90
2019-05-06T00:45:06.371Z,12.37
2019-05-06T00:47:35.611Z,11.23
2019-05-06T00:50:05.420Z,12.27
2019-05-06T00:52:35.836Z,10.57
2019-05-06T00:55:05.619Z,7.03
2019-05-06T00:57:44.104Z,9.40
2019-05-06T01:00:18.884Z,7.90
2019-05-06T01:02:48.727Z,10.47
2019-05-06T01:05:17.880Z,9.60
2019-05-06T01:07:47.172Z,14.17
2019-05-06T01:10:16.872Z,9.33
2019-05-06T01:13:11.307Z,8.60
2019-05-06T01:15:40.719Z,9.30
2019-05-06T01:18:10.075Z,7.50
2019-05-06T01:20:39.371Z,12.27
2019-05-06T01:23:09.003Z,9.97
2019-05-06T01:25:37.865Z,7.90
2019-05-06T01:28:07.211Z,11.37
2019-05-06T01:30:36.675Z,8.80
2019-05-06T01:33:05.676Z,11.63
2019-05-06T01:35:35.299Z,10.20
2019-05-06T01:38:24.262Z,12.93
2019-05-06T01:41:03.972Z,7.30
2019-05-06T01:43:34.670Z,11.30
2019-05-06T01:46:04.726Z,15.17
2019-05-06T01:48:49.687Z,14.03
2019-05-06T01:51:19.827Z,9.20
2019-05-06T01:53:49.007Z,13.13
2019-05-06T01:56:18.211Z,8.03
2019-05-06T01:58:47.255Z,17.43
2019-05-06T02:01:16.583Z,12.50
2019-05-06T02:03:45.708Z,13.83
2019-05-06T02:06:15.416Z,9.77
2019-05-06T02:08:44.971Z,12.37
2019-05-06T02:11:15.579Z,12.63
2019-05-06T02:13:45.163Z,15.83
2019-05-06T02:16:14.745Z,13.70
2019-05-06T02:18:44.779Z,8.60
2019-05-06T02:21:20.224Z,17.23
2019-05-06T02:23:54.091Z,14.30
2019-05-06T02:26:23.938Z,14.87
2019-05-06T02:28:55.117Z,14.80
2019-05-06T02:31:45.692Z,11.40
2019-05-06T02:34:17.212Z,13.80
2019-05-06T02:37:14.838Z,9.67
2019-05-06T02:39:44.136Z,13.10
2019-05-06T02:42:13.452Z,9.67
2019-05-06T02:44:44.133Z,13.73
2019-05-06T02:47:27.907Z,11.03
2019-05-06T02:50:04.159Z,11.90
2019-05-06T02:52:32.942Z,9.43
2019-05-06T02:55:01.985Z,11.00
2019-05-06T02:57:33.503Z,10.70
2019-05-06T03:00:04.733Z,15.30
2019-05-06T03:02:39.827Z,10.40
2019-05-06T03:05:04.624Z,20.97
2019-05-06T03:07:37.151Z,9.97
2019-05-06T03:10:05.135Z,8.67
2019-05-06T03:12:34.194Z,12.87
2019-05-06T03:15:04.443Z,9.73
2019-05-06T03:17:33.917Z,11.60
2019-05-06T03:20:04.643Z,11.57
2019-05-06T03:22:46.868Z,13.43
2019-05-06T03:25:24.032Z,12.20
2019-05-06T03:27:53.991Z,9.90
2019-05-06T03:30:25.337Z,11.23
2019-05-06T03:33:30.252Z,12.37
2019-05-06T03:35:42.563Z,12.27
2019-05-06T03:37:56.216Z,11.23
2019-05-06T03:40:25.308Z,16.07
2019-05-06T03:42:54.672Z,12.03
2019-05-06T03:45:34.108Z,13.30
2019-05-06T03:48:13.062Z,11.60
2019-05-06T03:50:44.066Z,12.30
2019-05-06T03:53:14.004Z,16.90
2019-05-06T03:55:47.195Z,14.30
2019-05-06T03:58:16.674Z,15.47
2019-05-06T04:00:46.418Z,12.97
2019-05-06T04:03:15.296Z,15.97
2019-05-06T04:05:44.801Z,18.53
2019-05-06T04:08:14.143Z,12.43
2019-05-06T04:10:44.192Z,17.60
2019-05-06T04:13:15.457Z,17.30
2019-05-06T04:15:58.592Z,12.90
2019-05-06T04:18:28.524Z,14.60
2019-05-06T04:21:13.639Z,14.07
2019-05-06T04:23:48.591Z,11.67
2019-05-06T04:26:28.079Z,17.77
2019-05-06T04:28:58.020Z,17.37
2019-05-06T04:31:27.364Z,15.43
2019-05-06T04:34:10.237Z,12.37
2019-05-06T04:36:28.282Z,16.27
2019-05-06T04:38:57.535Z,13.87
2019-05-06T04:41:27.037Z,13.30
2019-05-06T04:43:56.624Z,17.90
2019-05-06T04:46:25.803Z,12.00
2019-05-06T04:48:55.940Z,11.93
2019-05-06T04:51:25.150Z,10.13
2019-05-06T04:53:54.780Z,11.70
2019-05-06T04:56:23.974Z,15.50
2019-05-06T04:58:54.111Z,10.33
2019-05-06T05:01:23.399Z,9.37
2019-05-06T05:03:53.856Z,10.00
2019-05-06T05:06:23.784Z,8.43
2019-05-06T05:08:54.071Z,6.80
2019-05-06T05:11:48.416Z,8.60
2019-05-06T05:14:25.843Z,6.97
2019-05-06T05:17:04.979Z,10.17
2019-05-06T05:19:33.959Z,9.47
2019-05-06T05:22:05.939Z,7.97
2019-05-06T05:24:35.870Z,7.63
2019-05-06T05:27:06.247Z,9.03
2019-05-06T05:29:35.207Z,9.23
2019-05-06T05:32:04.197Z,10.87
2019-05-06T05:34:39.775Z,7.13
2019-05-06T05:37:04.867Z,8.90
2019-05-06T05:39:34.204Z,7.63
2019-05-06T05:42:15.347Z,9.70
2019-05-06T05:44:45.140Z,9.20
2019-05-06T05:47:14.763Z,10.37
2019-05-06T05:50:06.729Z,6.53
2019-05-06T05:52:35.767Z,7.00
2019-05-06T05:55:05.027Z,9.97
2019-05-06T05:57:34.800Z,6.60
2019-05-06T06:00:04.213Z,10.87
2019-05-06T06:02:33.885Z,8.40
2019-05-06T06:05:03.165Z,9.70
2019-05-06T06:07:33.411Z,9.93
2019-05-06T06:10:12.891Z,12.53
2019-05-06T06:12:42.902Z,9.70
2019-05-06T06:15:46.715Z,9.50
2019-05-06T06:18:23.816Z,8.03
2019-05-06T06:21:13.730Z,10.03
2019-05-06T06:23:34.677Z,8.53
2019-05-06T06:26:05.716Z,7.13
2019-05-06T06:28:35.301Z,11.90
2019-05-06T06:31:29.502Z,7.23
2019-05-06T06:34:04.467Z,13.80
2019-05-06T06:36:52.576Z,7.23
2019-05-06T06:39:24.632Z,8.80
2019-05-06T06:41:53.627Z,8.60
2019-05-06T06:44:25.883Z,9.30
2019-05-06T06:46:55.451Z,10.60
2019-05-06T06:49:24.395Z,6.43
2019-05-06T06:51:53.374Z,5.63
2019-05-06T06:54:23.316Z,8.37
2019-05-06T06:57:18.591Z,7.43
2019-05-06T07:00:00.652Z,12.80
2019-05-06T07:02:38.144Z,6.40
2019-05-06T07:05:39.284Z,6.47
2019-05-06T07:08:08.966Z,7.50
2019-05-06T07:10:46.978Z,7.90
2019-05-06T07:13:16.504Z,5.20
2019-05-06T07:15:46.456Z,6.30
2019-05-06T07:18:15.687Z,4.00
2019-05-06T07:21:08.212Z,6.23
2019-05-06T07:23:37.459Z,3.90
2019-05-06T07:26:06.779Z,5.80
2019-05-06T07:28:35.937Z,7.00
2019-05-06T07:31:18.641Z,6.40
2019-05-06T07:33:35.809Z,6.53
2019-05-06T07:36:04.755Z,3.27
2019-05-06T07:38:33.992Z,3.67
2019-05-06T07:41:17.299Z,2.97
2019-05-06T07:44:06.035Z,3.10
2019-05-06T07:46:42.788Z,2.87
2019-05-06T07:49:12.557Z,3.37
2019-05-06T07:51:42.337Z,4.43
2019-05-06T07:54:12.273Z,3.10
2019-05-06T07:56:42.826Z,5.40
2019-05-06T07:59:12.859Z,6.40
2019-05-06T08:01:44.006Z,4.20
2019-05-06T08:04:13.527Z,5.30
2019-05-06T08:06:42.845Z,4.23
2019-05-06T08:09:13.073Z,3.37
2019-05-06T08:11:42.408Z,4.77
2019-05-06T08:14:13.065Z,3.73
2019-05-06T08:16:53.152Z,4.47
2019-05-06T08:19:22.875Z,3.33
2019-05-06T08:21:53.803Z,5.10
2019-05-06T08:24:22.865Z,4.50
2019-05-06T08:26:52.200Z,3.93
2019-05-06T08:29:22.501Z,4.30
2019-05-06T08:31:52.349Z,6.53
2019-05-06T08:34:22.633Z,5.00
2019-05-06T08:37:13.970Z,5.00
2019-05-06T08:39:46.119Z,6.87
2019-05-06T08:42:15.571Z,5.30
2019-05-06T08:44:44.473Z,6.27
2019-05-06T08:47:13.527Z,4.43
2019-05-06T08:52:55.002Z,6.50
2019-05-06T08:55:29.956Z,4.50
2019-05-06T08:57:59.197Z,2.53
2019-05-06T09:00:28.207Z,2.23
2019-05-06T09:02:57.373Z,2.60
2019-05-06T09:05:26.661Z,2.30
2019-05-06T09:07:55.488Z,3.10
2019-05-06T09:10:24.476Z,3.67
2019-05-06T09:12:53.459Z,2.53
2019-05-06T09:15:22.439Z,2.47
2019-05-06T09:17:52.702Z,4.27
2019-05-06T09:20:23.438Z,4.30
2019-05-06T09:22:52.887Z,3.97
2019-05-06T09:25:23.172Z,4.93
2019-05-06T09:28:03.076Z,6.73
2019-05-06T09:30:46.384Z,8.03
2019-05-06T09:33:18.143Z,5.60
2019-05-06T09:35:47.763Z,5.17
2019-05-06T09:38:16.847Z,4.70
2019-05-06T09:40:46.043Z,7.00
2019-05-06T09:43:15.179Z,10.37
2019-05-06T09:45:44.131Z,5.97
2019-05-06T09:48:22.459Z,8.13
2019-05-06T09:50:53.820Z,4.80
2019-05-06T09:53:34.975Z,8.17
2019-05-06T09:56:23.045Z,5.07
2019-05-06T09:58:52.956Z,5.33
2019-05-06T10:01:23.656Z,5.70
2019-05-06T10:03:53.012Z,7.87
2019-05-06T10:06:22.575Z,6.30
2019-05-06T10:08:51.855Z,8.07
2019-05-06T10:11:22.317Z,5.23
2019-05-06T10:13:52.449Z,4.63
2019-05-06T10:16:21.629Z,5.03
2019-05-06T10:18:52.460Z,6.93
2019-05-06T10:21:22.973Z,7.80
2019-05-06T10:23:52.839Z,5.03
2019-05-06T10:26:23.491Z,5.30
2019-05-06T10:29:02.472Z,5.53
2019-05-06T10:31:36.463Z,2.97
2019-05-06T10:34:13.963Z,3.23
2019-05-06T10:37:17.615Z,2.77
2019-05-06T10:39:43.995Z,3.33
2019-05-06T10:42:16.419Z,3.60
2019-05-06T10:45:05.296Z,4.37
2019-05-06T10:47:34.188Z,5.10
2019-05-06T10:50:03.175Z,7.50
2019-05-06T10:52:51.868Z,3.40
2019-05-06T10:55:23.137Z,3.70
2019-05-06T10:57:53.080Z,2.90
2019-05-06T11:00:42.463Z,4.93
2019-05-06T11:03:15.843Z,5.00
2019-05-06T11:05:45.192Z,3.80
2019-05-06T11:08:14.351Z,4.20
2019-05-06T11:10:45.498Z,4.20
2019-05-06T11:13:14.813Z,3.90
2019-05-06T11:15:44.107Z,4.33
2019-05-06T11:18:13.795Z,4.50
2019-05-06T11:20:44.021Z,4.10
2019-05-06T11:23:14.383Z,5.47
2019-05-06T11:25:43.552Z,3.30
2019-05-06T11:28:34.848Z,3.30
2019-05-06T11:31:18.365Z,3.30
2019-05-06T11:33:55.935Z,6.27
2019-05-06T11:36:29.132Z,4.53
2019-05-06T11:38:58.053Z,5.70
2019-05-06T11:41:27.822Z,3.17
2019-05-06T11:43:57.453Z,3.53
2019-05-06T11:46:26.720Z,3.37
2019-05-06T11:48:56.027Z,4.97
2019-05-06T11:51:26.832Z,4.13
2019-05-06T11:53:56.105Z,3.10
2019-05-06T11:56:25.984Z,4.27
2019-05-06T11:58:55.896Z,2.90
2019-05-06T12:01:28.734Z,3.27
2019-05-06T12:03:58.220Z,4.03
2019-05-06T12:06:27.376Z,5.73
2019-05-06T12:08:56.885Z,3.90
2019-05-06T12:11:25.823Z,4.07
2019-05-06T12:13:55.396Z,4.83
2019-05-06T12:16:25.960Z,4.00
2019-05-06T12:18:55.515Z,4.37
2019-05-06T12:21:24.660Z,2.87
2019-05-06T12:23:53.976Z,3.83
2019-05-06T12:26:23.424Z,4.53
2019-05-06T12:28:53.362Z,3.57
2019-05-06T12:31:23.459Z,4.80
2019-05-06T12:33:53.484Z,9.70
2019-05-06T12:36:23.590Z,3.63
2019-05-06T12:39:15.688Z,4.60
2019-05-06T12:42:13.575Z,3.13
2019-05-06T12:44:52.938Z,4.73
2019-05-06T12:47:34.522Z,4.67
2019-05-06T12:50:03.813Z,4.60
2019-05-06T12:52:33.421Z,3.40
2019-05-06T12:55:17.011Z,3.87
2019-05-06T12:57:34.508Z,3.40
2019-05-06T13:00:04.358Z,5.10
2019-05-06T13:02:33.655Z,5.03
2019-05-06T13:05:04.014Z,3.83
2019-05-06T13:07:42.039Z,4.30
2019-05-06T13:10:13.106Z,3.73
2019-05-06T13:12:44.627Z,3.77
2019-05-06T13:15:14.127Z,4.27
2019-05-06T13:17:43.325Z,4.53
2019-05-06T13:20:14.646Z,6.80
2019-05-06T13:22:48.312Z,5.73
2019-05-06T13:25:17.417Z,4.70
2019-05-06T13:27:47.384Z,4.90
2019-05-06T13:30:16.961Z,4.73
2019-05-06T13:32:52.403Z,5.27
2019-05-06T13:35:23.120Z,5.50
2019-05-06T13:37:52.870Z,7.43
2019-05-06T13:40:23.089Z,3.80
2019-05-06T13:43:23.481Z,4.37
2019-05-06T13:45:54.276Z,4.93
2019-05-06T13:48:32.421Z,3.70
2019-05-06T13:51:04.680Z,5.27
2019-05-06T13:53:39.699Z,3.97
2019-05-06T13:56:04.741Z,3.63
2019-05-06T13:58:34.336Z,3.13
2019-05-06T14:01:06.627Z,4.27
2019-05-06T14:03:35.890Z,3.83
2019-05-06T14:06:04.847Z,6.83
2019-05-06T14:08:33.975Z,3.87
2019-05-06T14:11:03.657Z,3.80
2019-05-06T14:13:33.261Z,3.80
2019-05-06T14:16:04.858Z,3.73
2019-05-06T14:18:37.515Z,6.90
2019-05-06T14:21:05.357Z,3.47
2019-05-06T14:23:34.374Z,3.03
2019-05-06T14:26:17.071Z,4.70
2019-05-06T14:29:12.801Z,6.67
2019-05-06T14:31:45.369Z,5.10
2019-05-06T14:34:14.934Z,6.77
2019-05-06T14:36:44.145Z,5.83
2019-05-06T14:39:50.066Z,3.87
2019-05-06T14:42:06.623Z,4.10
2019-05-06T14:44:36.052Z,3.40
2019-05-06T14:47:13.317Z,3.87
2019-05-06T14:49:43.214Z,3.90
2019-05-06T14:52:13.374Z,3.70
2019-05-06T14:54:53.267Z,4.40
2019-05-06T14:57:23.620Z,5.83
2019-05-06T14:59:55.544Z,4.60
2019-05-06T15:02:26.974Z,4.63
2019-05-06T15:04:56.254Z,7.83
2019-05-06T15:07:26.064Z,5.67
2019-05-06T15:10:15.676Z,6.20
2019-05-06T15:12:26.493Z,4.90
2019-05-06T15:14:55.804Z,5.07
2019-05-06T15:17:24.946Z,5.33
2019-05-06T15:19:54.180Z,5.53
2019-05-06T15:22:23.691Z,6.33
2019-05-06T15:24:53.882Z,8.03
2019-05-06T15:27:23.158Z,5.77
2019-05-06T15:29:55.318Z,10.10
2019-05-06T15:32:34.081Z,4.40
2019-05-06T15:35:34.056Z,6.57
2019-05-06T15:38:07.936Z,4.87
2019-05-06T15:40:37.944Z,6.00
2019-05-06T15:43:07.846Z,5.93
2019-05-06T15:45:37.475Z,6.00
2019-05-06T15:48:12.901Z,6.67
2019-05-06T15:50:45.423Z,5.17
2019-05-06T15:53:13.153Z,6.33
2019-05-06T15:55:43.691Z,5.87
2019-05-06T15:58:13.306Z,6.77
2019-05-06T16:00:42.532Z,7.10
2019-05-06T16:03:12.962Z,5.90
2019-05-06T16:05:43.660Z,7.50
2019-05-06T16:08:12.801Z,6.07
2019-05-06T16:10:51.989Z,7.37
2019-05-06T16:13:13.288Z,5.13
2019-05-06T16:15:43.110Z,5.63
2019-05-06T16:18:12.964Z,5.83
2019-05-06T16:20:48.665Z,7.13
2019-05-06T16:23:39.698Z,6.57
2019-05-06T16:26:08.577Z,7.40
2019-05-06T16:28:38.077Z,6.23
2019-05-06T16:31:07.095Z,6.03
2019-05-06T16:33:36.261Z,6.90
2019-05-06T16:36:08.362Z,6.67
2019-05-06T16:38:37.811Z,6.80
2019-05-06T16:41:12.785Z,7.33
2019-05-06T16:43:37.800Z,7.40
2019-05-06T16:46:07.692Z,7.73
2019-05-06T16:48:36.640Z,6.20
2019-05-06T16:51:05.649Z,6.80
2019-05-06T16:53:35.305Z,6.53
2019-05-06T16:56:14.312Z,9.60
2019-05-06T16:58:47.430Z,6.37
2019-05-06T17:01:23.748Z,7.27
2019-05-06T17:03:59.609Z,6.37
2019-05-06T17:06:33.941Z,7.70
2019-05-06T17:09:17.329Z,7.10
2019-05-06T17:11:35.370Z,5.80
2019-05-06T17:14:05.611Z,8.70
2019-05-06T17:16:34.640Z,9.93
2019-05-06T17:19:04.529Z,9.47
2019-05-06T17:21:33.832Z,6.57
2019-05-06T17:24:02.734Z,8.87
2019-05-06T17:26:33.865Z,7.40
2019-05-06T17:29:14.055Z,8.17
2019-05-06T17:31:58.520Z,8.23
2019-05-06T17:34:31.250Z,7.53
2019-05-06T17:37:05.775Z,8.53
2019-05-06T17:39:34.765Z,6.77
2019-05-06T17:42:03.741Z,7.13
2019-05-06T17:44:33.260Z,9.00
2019-05-06T17:47:19.481Z,7.70
2019-05-06T17:49:48.679Z,6.77
2019-05-06T17:52:22.308Z,7.43
2019-05-06T17:54:52.754Z,9.70
2019-05-06T17:57:22.351Z,8.00
2019-05-06T17:59:52.770Z,10.47
2019-05-06T18:02:24.012Z,7.90
2019-05-06T18:04:53.596Z,13.77
2019-05-06T18:07:22.477Z,17.13
2019-05-06T18:09:52.270Z,15.47
2019-05-06T18:12:23.232Z,12.30
2019-05-06T18:14:53.369Z,8.70
2019-05-06T18:17:22.907Z,8.93
2019-05-06T18:19:52.145Z,9.60
2019-05-06T18:22:22.735Z,9.33
2019-05-06T18:24:52.635Z,12.00
2019-05-06T18:27:22.650Z,8.27
2019-05-06T18:29:53.286Z,7.60
2019-05-06T18:32:23.536Z,10.47
2019-05-06T18:34:52.796Z,8.80
2019-05-06T18:37:23.486Z,6.67
2019-05-06T18:39:53.075Z,8.00
2019-05-06T18:42:23.626Z,8.17
2019-05-06T18:44:52.981Z,6.80
2019-05-06T18:47:34.767Z,7.40
2019-05-06T18:50:04.196Z,9.20
2019-05-06T18:52:33.289Z,7.70
2019-05-06T18:55:02.696Z,7.10
2019-05-06T18:57:33.051Z,10.13
2019-05-06T19:00:03.164Z,6.07
2019-05-06T19:02:32.624Z,7.50
2019-05-06T19:05:16.512Z,6.40
2019-05-06T19:07:46.901Z,6.60
2019-05-06T19:10:22.330Z,7.50
2019-05-06T19:12:52.663Z,6.13
2019-05-06T19:15:22.188Z,7.30
2019-05-06T19:17:52.633Z,6.67
2019-05-06T19:20:24.403Z,8.07
2019-05-06T19:22:53.589Z,5.83
2019-05-06T19:25:26.351Z,6.77
2019-05-06T19:27:54.240Z,7.50
2019-05-06T19:30:23.722Z,7.73
2019-05-06T19:32:53.138Z,6.77
2019-05-06T19:35:22.851Z,10.93
2019-05-06T19:37:52.195Z,9.47
2019-05-06T19:40:22.900Z,8.50
2019-05-06T19:42:53.386Z,8.07
2019-05-06T19:45:22.533Z,5.77
2019-05-06T19:47:52.361Z,7.07
2019-05-06T19:50:25.725Z,7.53
2019-05-06T19:52:52.992Z,7.13
2019-05-06T19:55:23.098Z,5.63
2019-05-06T19:57:52.701Z,6.07
2019-05-06T20:00:23.127Z,13.00
2019-05-06T20:02:52.202Z,10.30
2019-05-06T20:05:33.960Z,6.77
2019-05-06T20:08:13.152Z,6.03
2019-05-06T20:11:05.277Z,7.70
2019-05-06T20:13:34.401Z,7.57
2019-05-06T20:16:03.709Z,7.10
2019-05-06T20:18:33.500Z,6.93
2019-05-06T20:21:02.775Z,7.00
2019-05-06T20:23:32.794Z,5.60
2019-05-06T20:26:05.739Z,6.50
2019-05-06T20:28:35.708Z,7.10
2019-05-06T20:31:04.735Z,10.43
2019-05-06T20:33:33.613Z,8.60
2019-05-06T20:36:02.925Z,9.97
2019-05-06T20:38:33.621Z,13.23
2019-05-06T20:41:03.068Z,9.53
2019-05-06T20:43:32.893Z,7.23
2019-05-06T20:46:04.840Z,7.00
2019-05-06T20:48:33.735Z,7.70
2019-05-06T20:51:03.557Z,8.47
2019-05-06T20:53:33.023Z,9.77
2019-05-06T20:56:02.833Z,8.43
2019-05-06T20:58:32.260Z,9.73
2019-05-06T21:01:02.989Z,10.10
2019-05-06T21:03:32.824Z,7.03
2019-05-06T21:06:02.620Z,7.60
2019-05-06T21:08:52.956Z,7.17
2019-05-06T21:11:26.476Z,7.60
2019-05-06T21:13:52.909Z,9.53
2019-05-06T21:16:22.545Z,10.67
2019-05-06T21:18:52.207Z,7.17
2019-05-06T21:21:21.143Z,7.70
2019-05-06T21:23:52.381Z,10.10
2019-05-06T21:26:22.151Z,8.70
2019-05-06T21:28:52.269Z,9.33
2019-05-06T21:31:21.527Z,11.20
2019-05-06T21:33:52.188Z,6.10
2019-05-06T21:36:22.971Z,8.97
2019-05-06T21:38:52.419Z,8.77
2019-05-06T21:41:22.132Z,9.00
2019-05-06T21:43:51.336Z,9.20
2019-05-06T21:46:20.619Z,9.97
2019-05-06T21:48:49.884Z,16.97
2019-05-06T21:51:18.976Z,10.90
2019-05-06T21:53:48.116Z,13.77
2019-05-06T21:56:16.863Z,9.20
2019-05-06T21:58:45.679Z,12.33
2019-05-06T22:01:15.247Z,7.87
2019-05-06T22:03:44.004Z,9.30
2019-05-06T22:06:13.645Z,12.10
2019-05-06T22:08:42.519Z,11.23
2019-05-06T22:11:12.006Z,9.30
2019-05-06T22:13:42.592Z,14.10
2019-05-06T22:16:12.337Z,14.60
2019-05-06T22:18:43.186Z,12.30
2019-05-06T22:21:22.965Z,12.30
2019-05-06T22:23:57.136Z,12.03
2019-05-06T22:26:26.858Z,14.70
2019-05-06T22:28:56.288Z,14.63
2019-05-06T22:31:26.302Z,12.90
2019-05-06T22:33:55.627Z,15.70
2019-05-06T22:36:24.724Z,13.63
2019-05-06T22:38:53.591Z,16.50
2019-05-06T22:41:25.055Z,15.70
2019-05-06T22:43:53.623Z,10.47
2019-05-06T22:46:23.518Z,11.60
2019-05-06T22:48:54.420Z,13.93
2019-05-06T22:51:24.158Z,13.43
2019-05-06T22:53:54.309Z,17.20
2019-05-06T22:56:23.543Z,15.93
2019-05-06T22:58:53.008Z,14.30
2019-05-06T23:01:49.143Z,15.37
2019-05-06T23:04:19.487Z,14.57
2019-05-06T23:06:49.067Z,14.00
2019-05-06T23:09:18.276Z,11.77
2019-05-06T23:11:47.530Z,11.80
2019-05-06T23:14:27.850Z,15.73
2019-05-06T23:16:47.431Z,14.67
2019-05-06T23:19:16.695Z,16.30
2019-05-06T23:21:45.623Z,12.80
2019-05-06T23:24:14.419Z,15.97
2019-05-06T23:26:43.588Z,14.13
2019-05-06T23:29:13.083Z,12.00
2019-05-06T23:31:42.667Z,10.53
2019-05-06T23:34:12.511Z,15.43
2019-05-06T23:37:27.089Z,12.60
2019-05-06T23:40:42.828Z,10.30
2019-05-06T23:43:48.027Z,10.20
2019-05-06T23:46:53.121Z,10.70
2019-05-06T23:49:58.752Z,12.97
2019-05-06T23:53:03.965Z,9.53
2019-05-06T23:56:09.111Z,11.47
2019-05-06T23:58:37.911Z,10.00
